createdAt,value
2017-04-14T00:00:37.149Z,28.89
2017-04-14T00:01:46.479Z,29.38
2017-04-14T00:02:55.246Z,28.99
2017-04-14T00:04:04.617Z,28.89
2017-04-14T00:05:13.677Z,29.08
2017-04-14T00:06:22.719Z,28.99
2017-04-14T00:07:31.444Z,29.47
2017-04-14T00:08:41.137Z,28.89
2017-04-14T00:09:50.817Z,29.08
2017-04-14T00:11:00.185Z,29.66
2017-04-14T00:12:09.267Z,29.47
2017-04-14T00:13:18.332Z,28.99
2017-04-14T00:14:28.003Z,28.99
2017-04-14T00:15:37.683Z,29.08
2017-04-14T00:16:46.457Z,28.99
2017-04-14T00:17:55.531Z,28.89
2017-04-14T00:19:04.889Z,29.08
2017-04-14T00:20:14.496Z,29.57
2017-04-14T00:21:23.824Z,29.38
2017-04-14T00:22:32.598Z,29.47
2017-04-14T00:23:42.491Z,28.99
2017-04-14T00:24:51.572Z,28.89
2017-04-14T00:26:01.266Z,28.89
2017-04-14T00:27:10.010Z,29.57
2017-04-14T00:28:24.196Z,29.57
2017-04-14T00:29:32.964Z,29.18
2017-04-14T00:30:41.738Z,28.89
2017-04-14T00:31:50.807Z,28.89
2017-04-14T00:32:59.877Z,29.47
2017-04-14T00:34:08.948Z,29.57
2017-04-14T00:35:18.008Z,29.66
2017-04-14T00:36:27.077Z,29.08
2017-04-14T00:37:35.829Z,29.66
2017-04-14T00:38:44.902Z,29.47
2017-04-14T00:39:53.958Z,29.28
2017-04-14T00:41:02.999Z,29.57
2017-04-14T00:42:12.035Z,29.66
2017-04-14T00:43:20.802Z,29.28
2017-04-14T00:44:30.475Z,29.57
2017-04-14T00:45:39.549Z,29.38
2017-04-14T00:46:48.318Z,29.47
2017-04-14T00:47:57.130Z,29.66
2017-04-14T00:49:06.802Z,29.76
2017-04-14T00:50:16.481Z,29.86
2017-04-14T00:51:25.244Z,29.66
2017-04-14T00:52:34.819Z,29.47
2017-04-14T00:53:43.885Z,29.38
2017-04-14T00:54:52.952Z,29.47
2017-04-14T00:56:02.024Z,29.38
2017-04-14T00:57:11.397Z,29.66
2017-04-14T00:58:20.218Z,29.86
2017-04-14T00:59:30.095Z,29.66
2017-04-14T01:00:38.860Z,29.66
2017-04-14T01:01:47.621Z,29.76
2017-04-14T01:02:56.689Z,29.76
2017-04-14T01:04:06.065Z,29.28
2017-04-14T01:05:15.139Z,29.47
2017-04-14T01:06:24.784Z,29.18
2017-04-14T01:07:33.491Z,29.76
2017-04-14T01:08:42.535Z,29.28
2017-04-14T01:09:51.557Z,29.86
2017-04-14T01:11:01.164Z,29.76
2017-04-14T01:12:10.226Z,29.86
2017-04-14T01:13:18.988Z,29.28
2017-04-14T01:14:28.649Z,29.86
2017-04-14T01:15:37.366Z,29.57
2017-04-14T01:16:46.747Z,29.57
2017-04-14T01:17:55.860Z,29.28
2017-04-14T01:19:05.240Z,29.28
2017-04-14T01:20:14.312Z,29.28
2017-04-14T01:21:23.082Z,29.47
2017-04-14T01:22:32.325Z,29.57
2017-04-14T01:23:41.648Z,29.57
2017-04-14T01:24:50.377Z,29.38
2017-04-14T01:25:59.407Z,29.38
2017-04-14T01:27:08.785Z,29.57
2017-04-14T01:28:17.838Z,29.08
2017-04-14T01:29:26.919Z,29.18
2017-04-14T01:30:36.268Z,29.18
2017-04-14T01:31:44.995Z,29.86
2017-04-14T01:32:53.765Z,29.47
2017-04-14T01:34:03.152Z,29.76
2017-04-14T01:35:12.222Z,29.27
2017-04-14T01:36:21.581Z,29.47
2017-04-14T01:37:30.537Z,29.28
2017-04-14T01:38:39.910Z,29.27
2017-04-14T01:39:49.025Z,29.57
2017-04-14T01:40:57.807Z,29.17
2017-04-14T01:42:06.873Z,28.99
2017-04-14T01:43:15.640Z,29.08
2017-04-14T01:44:25.033Z,29.36
2017-04-14T01:45:34.398Z,29.65
2017-04-14T01:46:43.531Z,29.66
2017-04-14T01:47:52.599Z,29.76
2017-04-14T01:49:01.641Z,29.36
2017-04-14T01:50:10.347Z,29.28
2017-04-14T01:51:19.124Z,29.46
2017-04-14T01:52:28.190Z,29.46
2017-04-14T01:53:37.855Z,29.28
2017-04-14T01:54:46.936Z,29.36
2017-04-14T01:55:56.611Z,29.74
2017-04-14T01:57:05.669Z,29.55
2017-04-14T01:58:14.712Z,29.74
2017-04-14T01:59:24.643Z,29.74
2017-04-14T02:00:33.711Z,28.97
2017-04-14T02:01:42.814Z,29.84
2017-04-14T02:02:51.843Z,29.17
2017-04-14T02:04:01.218Z,29.07
2017-04-14T02:05:10.298Z,29.55
2017-04-14T02:06:19.030Z,29.65
2017-04-14T02:07:28.059Z,29.46
2017-04-14T02:08:37.119Z,29.46
2017-04-14T02:09:47.104Z,29.55
2017-04-14T02:10:56.788Z,29.65
2017-04-14T02:12:05.563Z,29.74
2017-04-14T02:13:14.304Z,29.65
2017-04-14T02:14:24.244Z,29.74
2017-04-14T02:15:33.003Z,29.74
2017-04-14T02:16:42.032Z,29.55
2017-04-14T02:17:51.709Z,29.07
2017-04-14T02:19:01.388Z,29.07
2017-04-14T02:20:10.457Z,29.74
2017-04-14T02:21:19.803Z,29.74
2017-04-14T02:22:28.526Z,29.65
2017-04-14T02:23:37.300Z,29.74
2017-04-14T02:24:46.366Z,29.27
2017-04-14T02:25:55.129Z,29.36
2017-04-14T02:27:03.886Z,29.65
2017-04-14T02:28:12.642Z,29.74
2017-04-14T02:29:22.315Z,29.36
2017-04-14T02:30:31.690Z,29.17
2017-04-14T02:31:40.750Z,29.46
2017-04-14T02:32:50.133Z,29.74
2017-04-14T02:33:59.198Z,29.74
2017-04-14T02:35:07.970Z,29.55
2017-04-14T02:36:16.746Z,29.36
2017-04-14T02:37:25.807Z,29.74
2017-04-14T02:38:34.861Z,29.55
2017-04-14T02:39:43.931Z,29.65
2017-04-14T02:40:53.317Z,29.65
2017-04-14T02:42:02.126Z,29.55
2017-04-14T02:43:11.500Z,29.46
2017-04-14T02:44:20.576Z,29.65
2017-04-14T02:45:29.947Z,29.55
2017-04-14T02:46:38.988Z,29.74
2017-04-14T02:47:47.945Z,29.74
2017-04-14T02:48:57.626Z,29.74
2017-04-14T02:50:06.678Z,29.55
2017-04-14T02:51:15.395Z,29.46
2017-04-14T02:52:24.434Z,29.74
2017-04-14T02:53:33.195Z,29.74
2017-04-14T02:54:42.280Z,29.55
2017-04-14T02:55:51.322Z,29.55
2017-04-14T02:57:00.360Z,29.65
2017-04-14T02:58:09.768Z,29.46
2017-04-14T02:59:18.856Z,29.74
2017-04-14T03:00:27.950Z,29.74
2017-04-14T03:01:37.039Z,29.74
2017-04-14T03:02:46.134Z,29.74
2017-04-14T03:03:55.849Z,29.55
2017-04-14T03:05:04.639Z,29.84
2017-04-14T03:06:13.735Z,29.55
2017-04-14T03:07:23.128Z,29.55
2017-04-14T03:08:31.910Z,29.46
2017-04-14T03:09:41.010Z,29.84
2017-04-14T03:10:50.103Z,29.65
2017-04-14T03:11:58.893Z,29.74
2017-04-14T03:13:07.669Z,29.84
2017-04-14T03:14:17.380Z,29.65
2017-04-14T03:15:27.043Z,29.74
2017-04-14T03:16:35.824Z,29.84
2017-04-14T03:17:44.908Z,29.74
2017-04-14T03:18:54.273Z,29.84
2017-04-14T03:20:03.665Z,29.46
2017-04-14T03:21:12.453Z,29.74
2017-04-14T03:22:22.026Z,29.46
2017-04-14T03:23:30.770Z,29.65
2017-04-14T03:24:39.838Z,29.84
2017-04-14T03:25:49.163Z,29.74
2017-04-14T03:26:58.215Z,29.65
2017-04-14T03:28:07.011Z,29.65
2017-04-14T03:29:16.405Z,29.65
2017-04-14T03:30:25.468Z,28.97
2017-04-14T03:31:34.827Z,29.17
2017-04-14T03:32:43.616Z,29.07
2017-04-14T03:33:52.407Z,29.65
2017-04-14T03:35:02.110Z,29.74
2017-04-14T03:36:11.400Z,29.65
2017-04-14T03:37:20.190Z,29.36
2017-04-14T03:38:28.981Z,29.36
2017-04-14T03:39:38.067Z,29.55
2017-04-14T03:40:47.475Z,29.65
2017-04-14T03:41:56.265Z,29.74
2017-04-14T03:43:05.327Z,29.27
2017-04-14T03:44:14.380Z,29.65
2017-04-14T03:45:23.658Z,29.74
2017-04-14T03:46:33.032Z,29.84
2017-04-14T03:47:41.747Z,29.84
2017-04-14T03:48:51.717Z,29.84
2017-04-14T03:50:00.811Z,29.46
2017-04-14T03:51:09.597Z,29.74
2017-04-14T03:52:18.622Z,30.04
2017-04-14T03:53:27.410Z,29.65
2017-04-14T03:54:36.962Z,29.65
2017-04-14T03:55:46.624Z,29.84
2017-04-14T03:56:55.412Z,29.84
2017-04-14T03:58:04.507Z,29.65
2017-04-14T03:59:13.603Z,29.74
2017-04-14T04:00:22.740Z,29.74
2017-04-14T04:01:31.803Z,29.65
2017-04-14T04:02:40.563Z,29.55
2017-04-14T04:03:49.651Z,29.27
2017-04-14T04:04:59.657Z,29.27
2017-04-14T04:06:08.762Z,29.74
2017-04-14T04:07:17.847Z,29.55
2017-04-14T04:08:26.636Z,29.65
2017-04-14T04:09:36.342Z,29.36
2017-04-14T04:10:45.402Z,29.46
2017-04-14T04:11:54.481Z,29.46
2017-04-14T04:13:03.858Z,29.55
2017-04-14T04:14:12.904Z,29.74
2017-04-14T04:15:21.986Z,29.74
2017-04-14T04:16:30.774Z,29.36
2017-04-14T04:17:39.856Z,29.46
2017-04-14T04:18:48.964Z,29.74
2017-04-14T04:19:58.373Z,29.55
2017-04-14T04:21:07.708Z,29.74
2017-04-14T04:22:17.067Z,29.74
2017-04-14T04:23:26.780Z,29.36
2017-04-14T04:24:36.487Z,29.74
2017-04-14T04:25:45.276Z,29.46
2017-04-14T04:26:54.365Z,29.74
2017-04-14T04:28:03.772Z,29.65
2017-04-14T04:29:13.144Z,29.74
2017-04-14T04:30:22.804Z,29.46
2017-04-14T04:31:32.171Z,29.65
2017-04-14T04:32:41.223Z,29.17
2017-04-14T04:33:50.625Z,29.65
2017-04-14T04:35:00.634Z,29.46
2017-04-14T04:36:09.727Z,29.74
2017-04-14T04:37:18.820Z,29.55
2017-04-14T04:38:27.614Z,29.74
2017-04-14T04:39:36.711Z,29.65
2017-04-14T04:40:45.812Z,29.74
2017-04-14T04:41:54.574Z,29.74
2017-04-14T04:43:03.629Z,29.55
2017-04-14T04:44:12.387Z,29.74
2017-04-14T04:45:21.441Z,29.66
2017-04-14T04:46:30.806Z,29.55
2017-04-14T04:47:39.541Z,29.74
2017-04-14T04:48:48.568Z,29.28
2017-04-14T04:49:57.937Z,29.38
2017-04-14T04:51:07.032Z,29.66
2017-04-14T04:52:16.127Z,29.86
2017-04-14T04:53:25.819Z,29.57
2017-04-14T04:54:34.906Z,29.76
2017-04-14T04:55:43.697Z,29.57
2017-04-14T04:56:52.530Z,29.86
2017-04-14T04:58:02.222Z,29.08
2017-04-14T04:59:11.615Z,29.76
2017-04-14T05:00:21.008Z,29.86
2017-04-14T05:01:30.123Z,29.47
2017-04-14T05:02:39.514Z,29.57
2017-04-14T05:03:48.600Z,29.38
2017-04-14T05:04:57.668Z,29.28
2017-04-14T05:06:06.717Z,28.7
2017-04-14T05:07:16.425Z,29.18
2017-04-14T05:08:25.265Z,28.7
2017-04-14T05:09:34.966Z,29.08
2017-04-14T05:10:43.745Z,29.08
2017-04-14T05:11:52.528Z,28.7
2017-04-14T05:13:01.620Z,28.89
2017-04-14T05:14:11.006Z,28.89
2017-04-14T05:15:21.016Z,28.99
2017-04-14T05:16:30.114Z,28.61
2017-04-14T05:17:39.513Z,28.99
2017-04-14T05:18:49.528Z,29.08
2017-04-14T05:19:58.929Z,28.89
2017-04-14T05:21:08.020Z,28.89
2017-04-14T05:22:17.420Z,28.61
2017-04-14T05:23:26.216Z,28.7
2017-04-14T05:24:35.615Z,28.7
2017-04-14T05:25:44.702Z,28.7
2017-04-14T05:26:53.803Z,28.51
2017-04-14T05:28:03.559Z,28.61
2017-04-14T05:29:12.654Z,28.72
2017-04-14T05:30:21.748Z,28.51
2017-04-14T05:31:31.427Z,28.62
2017-04-14T05:32:40.732Z,28.52
2017-04-14T05:33:49.799Z,28.62
2017-04-14T05:34:58.857Z,28.42
2017-04-14T05:36:07.615Z,28.72
2017-04-14T05:37:16.412Z,28.42
2017-04-14T05:38:25.812Z,28.42
2017-04-14T05:39:35.522Z,28.14
2017-04-14T05:40:45.232Z,28.33
2017-04-14T05:41:54.018Z,28.14
2017-04-14T05:43:03.082Z,28.14
2017-04-14T05:44:12.106Z,28.14
2017-04-14T05:45:21.763Z,28.42
2017-04-14T05:46:30.543Z,28.14
2017-04-14T05:47:39.969Z,28.42
2017-04-14T05:48:49.372Z,28.33
2017-04-14T05:49:59.041Z,28.14
2017-04-14T05:51:07.754Z,28.14
2017-04-14T05:52:16.809Z,28.14
2017-04-14T05:53:26.519Z,28.42
2017-04-14T05:54:35.930Z,28.33
2017-04-14T05:55:45.231Z,28.42
2017-04-14T05:56:54.025Z,28.23
2017-04-14T05:58:03.123Z,28.23
2017-04-14T05:59:12.559Z,28.33
2017-04-14T06:00:21.972Z,28.23
2017-04-14T06:01:30.759Z,28.23
2017-04-14T06:02:40.671Z,28.14
2017-04-14T06:03:50.064Z,28.23
2017-04-14T06:04:59.440Z,28.23
2017-04-14T06:06:08.504Z,28.14
2017-04-14T06:07:17.573Z,28.04
2017-04-14T06:08:26.932Z,27.94
2017-04-14T06:09:35.726Z,27.96
2017-04-14T06:10:45.105Z,27.86
2017-04-14T06:11:54.532Z,27.76
2017-04-14T06:13:03.313Z,27.57
2017-04-14T06:14:12.107Z,27.96
2017-04-14T06:15:21.175Z,27.86
2017-04-14T06:16:30.533Z,27.67
2017-04-14T06:17:39.638Z,27.38
2017-04-14T06:18:49.350Z,27.48
2017-04-14T06:19:58.424Z,27.57
2017-04-14T06:21:07.815Z,27.48
2017-04-14T06:22:16.911Z,27.38
2017-04-14T06:23:25.698Z,27.28
2017-04-14T06:24:35.409Z,27.38
2017-04-14T06:25:44.511Z,27.38
2017-04-14T06:26:53.308Z,27.38
2017-04-14T06:28:02.396Z,27.48
2017-04-14T06:29:11.789Z,27.38
2017-04-14T06:30:21.378Z,27.38
2017-04-14T06:31:30.482Z,27.38
2017-04-14T06:32:39.573Z,27.28
2017-04-14T06:33:48.355Z,27.28
2017-04-14T06:34:58.111Z,27.28
2017-04-14T06:36:07.218Z,27.28
2017-04-14T06:37:15.976Z,27.19
2017-04-14T06:38:25.029Z,27.19
2017-04-14T06:39:34.122Z,27.09
2017-04-14T06:40:43.056Z,27.19
2017-04-14T06:41:51.819Z,27.28
2017-04-14T06:43:00.892Z,27.19
2017-04-14T06:44:09.633Z,27.38
2017-04-14T06:45:19.650Z,27.48
2017-04-14T06:46:28.442Z,27.09
2017-04-14T06:47:37.193Z,27.11
2017-04-14T06:48:46.552Z,27.19
2017-04-14T06:49:55.356Z,27
2017-04-14T06:51:04.440Z,27.19
2017-04-14T06:52:13.847Z,27.28
2017-04-14T06:53:22.945Z,26.8
2017-04-14T06:54:32.345Z,26.9
2017-04-14T06:55:41.170Z,26.9
2017-04-14T06:56:50.241Z,26.91
2017-04-14T06:57:59.969Z,26.91
2017-04-14T06:59:09.068Z,27.01
2017-04-14T07:00:18.779Z,27.09
2017-04-14T07:01:27.571Z,27.19
2017-04-14T07:02:36.347Z,26.8
2017-04-14T07:03:45.740Z,26.8
2017-04-14T07:04:55.140Z,26.9
2017-04-14T07:06:04.854Z,27.19
2017-04-14T07:07:13.951Z,26.9
2017-04-14T07:08:22.691Z,27.19
2017-04-14T07:09:31.766Z,27.19
2017-04-14T07:10:40.504Z,27
2017-04-14T07:11:49.267Z,27.28
2017-04-14T07:12:58.363Z,27.19
2017-04-14T07:14:07.149Z,27.19
2017-04-14T07:15:16.239Z,27.19
2017-04-14T07:16:25.025Z,27.28
2017-04-14T07:17:33.811Z,27.28
2017-04-14T07:18:42.906Z,27.28
2017-04-14T07:19:52.309Z,27.28
2017-04-14T07:21:02.016Z,27.38
2017-04-14T07:22:11.114Z,27.19
2017-04-14T07:23:20.215Z,27.19
2017-04-14T07:24:29.807Z,27.28
2017-04-14T07:25:38.601Z,27.19
2017-04-14T07:26:47.695Z,27.19
2017-04-14T07:27:56.784Z,27.19
2017-04-14T07:29:05.871Z,27.09
2017-04-14T07:30:15.249Z,27.19
2017-04-14T07:31:24.308Z,27.28
2017-04-14T07:32:33.418Z,27.19
2017-04-14T07:33:43.081Z,27.28
2017-04-14T07:34:52.685Z,27.19
2017-04-14T07:36:02.037Z,27.28
2017-04-14T07:37:11.123Z,27.28
2017-04-14T07:38:20.829Z,27.28
2017-04-14T07:39:30.533Z,27.28
2017-04-14T07:40:39.634Z,27.28
2017-04-14T07:41:48.706Z,27.28
2017-04-14T07:42:57.752Z,27.19
2017-04-14T07:44:06.823Z,27.28
2017-04-14T07:45:16.179Z,27.28
2017-04-14T07:46:24.937Z,27.19
2017-04-14T07:47:33.695Z,27.38
2017-04-14T07:48:42.762Z,27.38
2017-04-14T07:49:52.136Z,27.38
2017-04-14T07:51:01.502Z,27.38
2017-04-14T07:52:10.235Z,27.38
2017-04-14T07:53:19.640Z,27.38
2017-04-14T07:54:29.036Z,27.48
2017-04-14T07:55:37.821Z,27.48
2017-04-14T07:56:46.916Z,27.28
2017-04-14T07:57:56.590Z,27.28
2017-04-14T07:59:05.913Z,27.38
2017-04-14T08:00:14.967Z,27.38
2017-04-14T08:01:24.068Z,27.38
2017-04-14T08:02:33.166Z,27.28
2017-04-14T08:03:42.614Z,27.19
2017-04-14T08:04:51.716Z,27.38
2017-04-14T08:06:01.081Z,27.38
2017-04-14T08:07:09.832Z,27.38
2017-04-14T08:08:18.616Z,27.38
2017-04-14T08:09:27.715Z,27.28
2017-04-14T08:10:36.804Z,27.38
2017-04-14T08:11:45.891Z,27.28
2017-04-14T08:12:54.958Z,27.38
2017-04-14T08:14:04.011Z,27.28
2017-04-14T08:15:13.074Z,27.19
2017-04-14T08:16:21.813Z,27.38
2017-04-14T08:17:30.887Z,27.19
2017-04-14T08:18:40.247Z,27.38
2017-04-14T08:19:49.341Z,27.19
2017-04-14T08:20:58.110Z,27.38
2017-04-14T08:22:07.183Z,27.28
2017-04-14T08:23:17.092Z,27.19
2017-04-14T08:24:26.223Z,27.28
2017-04-14T08:25:35.307Z,27.38
2017-04-14T08:26:44.413Z,27.38
2017-04-14T08:27:53.175Z,27.38
2017-04-14T08:29:02.243Z,27.38
2017-04-14T08:30:11.638Z,27.38
2017-04-14T08:31:20.743Z,27.28
2017-04-14T08:32:29.835Z,27.38
2017-04-14T08:33:39.544Z,27.38
2017-04-14T08:34:49.563Z,27.28
2017-04-14T08:35:58.648Z,27.48
2017-04-14T08:37:07.752Z,27.48
2017-04-14T08:38:17.460Z,27.48
2017-04-14T08:39:26.554Z,27.38
2017-04-14T08:40:35.648Z,27.38
2017-04-14T08:41:44.743Z,27.38
2017-04-14T08:42:53.812Z,27.38
2017-04-14T08:44:02.864Z,27.38
2017-04-14T08:45:11.960Z,27.38
2017-04-14T08:46:20.771Z,27.38
2017-04-14T08:47:29.550Z,27.38
2017-04-14T08:48:38.626Z,27.38
2017-04-14T08:49:47.681Z,27.28
2017-04-14T08:50:57.394Z,27.19
2017-04-14T08:52:06.451Z,27.38
2017-04-14T08:53:15.494Z,27.38
2017-04-14T08:54:24.280Z,27.38
2017-04-14T08:55:33.869Z,27.19
2017-04-14T08:56:42.955Z,27.38
2017-04-14T08:57:52.052Z,27.48
2017-04-14T08:59:00.842Z,27.38
2017-04-14T09:00:10.547Z,27.38
2017-04-14T09:01:19.929Z,27.38
2017-04-14T09:02:28.693Z,27.38
2017-04-14T09:03:37.534Z,27.38
2017-04-14T09:04:46.938Z,27.38
2017-04-14T09:05:56.005Z,27.28
2017-04-14T09:07:05.054Z,27.48
2017-04-14T09:08:14.153Z,27.38
2017-04-14T09:09:23.831Z,27.38
2017-04-14T09:10:32.895Z,27.28
2017-04-14T09:11:41.685Z,27.38
2017-04-14T09:12:50.465Z,27.38
2017-04-14T09:13:59.248Z,27.38
2017-04-14T09:15:08.024Z,27.28
2017-04-14T09:16:17.424Z,27.38
2017-04-14T09:17:26.520Z,27.38
2017-04-14T09:18:35.310Z,27.38
2017-04-14T09:19:44.114Z,27.28
2017-04-14T09:20:52.910Z,27.38
2017-04-14T09:22:01.991Z,27.38
2017-04-14T09:23:10.768Z,27.38
2017-04-14T09:24:20.483Z,27.28
2017-04-14T09:25:29.275Z,27.28
2017-04-14T09:26:38.073Z,27.38
2017-04-14T09:27:47.217Z,27.38
2017-04-14T09:28:55.998Z,27.38
2017-04-14T09:30:05.386Z,27.19
2017-04-14T09:31:14.133Z,27.19
2017-04-14T09:32:22.920Z,27.19
2017-04-14T09:33:31.680Z,27.28
2017-04-14T09:34:40.733Z,27.28
2017-04-14T09:35:49.493Z,27.19
2017-04-14T09:36:58.227Z,27.2
2017-04-14T09:38:07.321Z,27.28
2017-04-14T09:39:16.114Z,27.29
2017-04-14T09:40:25.535Z,27.2
2017-04-14T09:41:34.305Z,27.2
2017-04-14T09:42:43.362Z,27.19
2017-04-14T09:43:53.377Z,27.29
2017-04-14T09:45:02.786Z,27.28
2017-04-14T09:46:11.583Z,27.29
2017-04-14T09:47:20.681Z,27.11
2017-04-14T09:48:29.670Z,27.01
2017-04-14T09:49:38.739Z,27.2
2017-04-14T09:50:48.082Z,26.91
2017-04-14T09:51:57.487Z,26.81
2017-04-14T09:53:06.284Z,27.01
2017-04-14T09:54:15.684Z,26.91
2017-04-14T09:55:25.078Z,26.91
2017-04-14T09:56:34.177Z,27.11
2017-04-14T09:57:43.251Z,27.01
2017-04-14T09:58:52.217Z,27.01
2017-04-14T10:00:01.610Z,26.81
2017-04-14T10:01:10.374Z,27.11
2017-04-14T10:02:19.732Z,27.11
2017-04-14T10:03:28.473Z,27.01
2017-04-14T10:04:37.273Z,27.11
2017-04-14T10:05:46.071Z,26.91
2017-04-14T10:06:54.849Z,26.81
2017-04-14T10:08:03.643Z,27.11
2017-04-14T10:09:13.013Z,27.01
2017-04-14T10:10:21.765Z,26.91
2017-04-14T10:11:30.538Z,26.91
2017-04-14T10:12:39.605Z,27.01
2017-04-14T10:13:49.276Z,27.01
2017-04-14T10:14:58.352Z,26.91
2017-04-14T10:16:07.350Z,26.91
2017-04-14T10:17:16.732Z,26.91
2017-04-14T10:18:25.788Z,26.81
2017-04-14T10:19:34.877Z,26.81
2017-04-14T10:20:44.253Z,26.72
2017-04-14T10:21:53.284Z,26.72
2017-04-14T10:23:02.641Z,26.62
2017-04-14T10:24:11.736Z,26.53
2017-04-14T10:25:21.134Z,26.62
2017-04-14T10:26:30.521Z,26.62
2017-04-14T10:27:39.619Z,26.62
2017-04-14T10:28:49.323Z,26.81
2017-04-14T10:29:58.725Z,26.72
2017-04-14T10:31:07.522Z,26.82
2017-04-14T10:32:16.925Z,26.92
2017-04-14T10:33:26.584Z,26.92
2017-04-14T10:34:35.677Z,26.15
2017-04-14T10:35:45.061Z,26.34
2017-04-14T10:36:53.807Z,26.44
2017-04-14T10:38:02.602Z,26.82
2017-04-14T10:39:11.696Z,26.92
2017-04-14T10:40:20.792Z,26.73
2017-04-14T10:41:29.586Z,26.82
2017-04-14T10:42:38.581Z,26.92
2017-04-14T10:43:48.190Z,26.82
2017-04-14T10:44:57.623Z,26.92
2017-04-14T10:46:07.016Z,26.73
2017-04-14T10:47:15.804Z,26.92
2017-04-14T10:48:25.481Z,26.82
2017-04-14T10:49:34.846Z,26.44
2017-04-14T10:50:43.731Z,26.44
2017-04-14T10:51:52.515Z,26.82
2017-04-14T10:53:01.811Z,26.92
2017-04-14T10:54:11.210Z,26.44
2017-04-14T10:55:20.619Z,26.34
2017-04-14T10:56:29.410Z,26.25
2017-04-14T10:57:38.505Z,26.82
2017-04-14T10:58:47.806Z,26.54
2017-04-14T10:59:57.207Z,26.44
2017-04-14T11:01:06.907Z,26.25
2017-04-14T11:02:15.704Z,26.92
2017-04-14T11:03:24.805Z,26.44
2017-04-14T11:04:35.025Z,26.25
2017-04-14T11:05:43.910Z,26.92
2017-04-14T11:06:52.695Z,26.92
2017-04-14T11:08:01.789Z,26.82
2017-04-14T11:09:10.923Z,26.92
2017-04-14T11:10:20.018Z,26.64
2017-04-14T11:11:29.082Z,26.44
2017-04-14T11:12:37.837Z,26.06
2017-04-14T11:13:47.550Z,26.15
2017-04-14T11:14:56.317Z,26.45
2017-04-14T11:16:05.381Z,26.15
2017-04-14T11:17:14.479Z,25.97
2017-04-14T11:18:23.565Z,25.97
2017-04-14T11:19:32.667Z,25.87
2017-04-14T11:20:41.625Z,26.07
2017-04-14T11:21:50.369Z,25.68
2017-04-14T11:22:59.723Z,25.29
2017-04-14T11:24:08.817Z,25.39
2017-04-14T11:25:18.495Z,25.68
2017-04-14T11:26:27.559Z,25.31
2017-04-14T11:27:36.964Z,25.89
2017-04-14T11:28:46.420Z,25.79
2017-04-14T11:29:55.842Z,25.68
2017-04-14T11:31:05.455Z,25.39
2017-04-14T11:32:15.173Z,25.49
2017-04-14T11:33:24.578Z,25.97
2017-04-14T11:34:33.672Z,25.97
2017-04-14T11:35:42.770Z,26.07
2017-04-14T11:36:52.455Z,25.68
2017-04-14T11:38:01.797Z,26.07
2017-04-14T11:39:10.882Z,25.68
2017-04-14T11:40:20.243Z,26.07
2017-04-14T11:41:29.001Z,25.59
2017-04-14T11:42:38.060Z,26.07
2017-04-14T11:43:48.077Z,26.07
2017-04-14T11:44:57.159Z,25.67
2017-04-14T11:46:05.946Z,25.67
2017-04-14T11:47:15.046Z,26.07
2017-04-14T11:48:24.448Z,26.44
2017-04-14T11:49:33.231Z,26.54
2017-04-14T11:50:42.091Z,26.25
2017-04-14T11:51:51.143Z,26.54
2017-04-14T11:52:59.930Z,26.54
2017-04-14T11:54:08.726Z,26.06
2017-04-14T11:55:17.903Z,26.64
2017-04-14T11:56:26.690Z,26.82
2017-04-14T11:57:36.089Z,26.34
2017-04-14T11:58:45.815Z,26.73
2017-04-14T11:59:54.906Z,26.82
2017-04-14T12:01:04.005Z,26.73
2017-04-14T12:02:13.077Z,26.44
2017-04-14T12:03:22.127Z,27.02
2017-04-14T12:04:30.914Z,26.54
2017-04-14T12:05:40.315Z,26.62
2017-04-14T12:06:49.386Z,26.62
2017-04-14T12:07:58.990Z,26.43
2017-04-14T12:09:07.771Z,26.91
2017-04-14T12:10:16.561Z,27.01
2017-04-14T12:11:25.960Z,26.81
2017-04-14T12:12:34.734Z,26.91
2017-04-14T12:13:43.767Z,26.72
2017-04-14T12:14:53.470Z,26.91
2017-04-14T12:16:02.540Z,27.01
2017-04-14T12:17:11.583Z,26.91
2017-04-14T12:18:20.644Z,27.11
2017-04-14T12:19:29.438Z,27.11
2017-04-14T12:20:38.230Z,27.11
2017-04-14T12:21:47.223Z,27.29
2017-04-14T12:22:56.324Z,27.01
2017-04-14T12:24:05.456Z,26.81
2017-04-14T12:25:14.244Z,27.2
2017-04-14T12:26:23.334Z,27.01
2017-04-14T12:27:32.428Z,27.11
2017-04-14T12:28:41.846Z,26.91
2017-04-14T12:29:51.248Z,27.01
2017-04-14T12:31:00.039Z,27.01
2017-04-14T12:32:08.817Z,27.01
2017-04-14T12:33:17.876Z,27.2
2017-04-14T12:34:27.450Z,27.11
2017-04-14T12:35:36.209Z,27.11
2017-04-14T12:36:45.348Z,27.11
2017-04-14T12:37:54.455Z,27.11
2017-04-14T12:39:03.242Z,26.91
2017-04-14T12:40:12.346Z,27.01
2017-04-14T12:41:21.718Z,27.11
2017-04-14T12:42:30.457Z,26.91
2017-04-14T12:43:39.247Z,26.91
2017-04-14T12:44:48.022Z,26.91
2017-04-14T12:45:57.430Z,27.2
2017-04-14T12:47:06.523Z,27.01
2017-04-14T12:48:15.627Z,27.11
2017-04-14T12:49:24.719Z,27.11
2017-04-14T12:50:33.528Z,26.91
2017-04-14T12:51:42.312Z,26.91
2017-04-14T12:52:51.100Z,27.01
2017-04-14T12:54:01.048Z,27.11
2017-04-14T12:55:10.150Z,26.91
2017-04-14T12:56:19.133Z,27.11
2017-04-14T12:57:28.199Z,26.81
2017-04-14T12:58:37.294Z,26.81
2017-04-14T12:59:46.663Z,26.91
2017-04-14T13:00:55.714Z,26.81
2017-04-14T13:02:04.497Z,26.81
2017-04-14T13:03:13.597Z,27.11
2017-04-14T13:04:23.307Z,27.01
2017-04-14T13:05:32.085Z,27.11
2017-04-14T13:06:40.851Z,27.11
2017-04-14T13:07:49.940Z,27.11
2017-04-14T13:08:59.014Z,27.11
2017-04-14T13:10:08.390Z,27.11
2017-04-14T13:11:17.172Z,26.91
2017-04-14T13:12:26.275Z,27.01
2017-04-14T13:13:35.035Z,27.2
2017-04-14T13:14:44.698Z,26.91
2017-04-14T13:15:53.791Z,26.91
2017-04-14T13:17:02.577Z,27.11
2017-04-14T13:18:11.366Z,27.2
2017-04-14T13:19:20.775Z,27.2
2017-04-14T13:20:30.494Z,27.01
2017-04-14T13:21:39.580Z,27.2
2017-04-14T13:22:48.653Z,27.01
2017-04-14T13:23:58.008Z,27.11
2017-04-14T13:25:07.102Z,26.91
2017-04-14T13:26:16.200Z,27.29
2017-04-14T13:27:25.294Z,26.91
2017-04-14T13:28:34.369Z,27.2
2017-04-14T13:29:43.818Z,27.29
2017-04-14T13:30:52.911Z,27.11
2017-04-14T13:32:02.003Z,27.11
2017-04-14T13:33:11.082Z,27.11
2017-04-14T13:34:20.682Z,26.91
2017-04-14T13:35:29.793Z,27.01
2017-04-14T13:36:38.631Z,27.01
2017-04-14T13:37:47.419Z,26.91
2017-04-14T13:38:56.179Z,27.01
2017-04-14T13:40:04.918Z,26.91
2017-04-14T13:41:14.020Z,27.2
2017-04-14T13:42:22.728Z,26.91
2017-04-14T13:43:31.453Z,26.91
2017-04-14T13:44:40.208Z,27.2
2017-04-14T13:45:48.974Z,27.11
2017-04-14T13:46:58.339Z,27.11
2017-04-14T13:48:07.742Z,26.91
2017-04-14T13:49:17.450Z,26.81
2017-04-14T13:50:27.204Z,27.01
2017-04-14T13:51:35.996Z,26.91
2017-04-14T13:52:44.788Z,26.91
2017-04-14T13:53:53.553Z,27.2
2017-04-14T13:55:02.812Z,27.11
2017-04-14T13:56:11.613Z,27.11
2017-04-14T13:57:20.376Z,27.29
2017-04-14T13:58:29.706Z,27.11
2017-04-14T13:59:39.410Z,27.01
2017-04-14T14:00:48.797Z,26.91
2017-04-14T14:01:57.842Z,26.91
2017-04-14T14:03:06.593Z,27.11
2017-04-14T14:04:15.689Z,26.81
2017-04-14T14:05:25.093Z,27.11
2017-04-14T14:06:34.180Z,27.01
2017-04-14T14:07:42.955Z,26.81
2017-04-14T14:08:52.007Z,27.01
2017-04-14T14:10:01.101Z,26.91
2017-04-14T14:11:09.898Z,27.01
2017-04-14T14:12:18.662Z,27.29
2017-04-14T14:13:27.714Z,27.11
2017-04-14T14:14:36.801Z,27.01
2017-04-14T14:15:45.906Z,27.11
2017-04-14T14:16:55.001Z,27.11
2017-04-14T14:18:04.078Z,27.11
2017-04-14T14:19:13.118Z,27.2
2017-04-14T14:20:22.776Z,27.2
2017-04-14T14:21:31.838Z,27.01
2017-04-14T14:22:41.242Z,27.01
2017-04-14T14:23:50.628Z,26.91
2017-04-14T14:24:59.994Z,27.11
2017-04-14T14:26:09.092Z,26.91
2017-04-14T14:27:18.162Z,26.81
2017-04-14T14:28:27.265Z,26.91
2017-04-14T14:29:36.357Z,26.91
2017-04-14T14:30:45.797Z,27.11
2017-04-14T14:31:54.847Z,26.72
2017-04-14T14:33:03.941Z,27.01
2017-04-14T14:34:13.035Z,26.91
2017-04-14T14:35:22.131Z,26.81
2017-04-14T14:36:31.225Z,27.11
2017-04-14T14:37:40.010Z,27.11
2017-04-14T14:38:49.100Z,26.81
2017-04-14T14:39:58.500Z,27.11
2017-04-14T14:41:07.563Z,27.01
2017-04-14T14:42:16.626Z,27.11
2017-04-14T14:43:25.711Z,27.2
2017-04-14T14:44:34.777Z,27.01
2017-04-14T14:45:44.182Z,26.81
2017-04-14T14:46:52.931Z,26.81
2017-04-14T14:48:01.977Z,26.91
2017-04-14T14:49:11.079Z,27.01
2017-04-14T14:50:20.179Z,27.11
2017-04-14T14:51:28.968Z,27.01